Carlin, NV

7:20 PM PDT on April 26, 2015 (GMT -0700)
MesoWest | | Change Station
CLOSE
Current Station
Personal Weather Station
Location: Carlin, NV
Elevation: 5005 ft
Nearby Weather Stations

Elev 5005 ft 40.72 °N, 116.02 °W | Updated 59 minutes ago

Clear
Clear
48 °F
Feels Like 43 °F
N
13
Wind Variable Wind from NW
Gusts 24.0 mph

Today
High -- | Low -- °F
--% Chance of Precip.
Yesterday
High -- | Low -- °F
Precip. -- in
5:49 AM 7:35 PM
First Quarter, 60% visible
Pressure 30.16 in
Visibility 10.0 miles
Clouds Clear
Windchill 43 °F
Dew Point 20 °F
Humidity 33%
Rainfall in
Snow Depth Not available.
UV 0 out of 12
Pollen 8.80 out of 12
Air Quality Not available.
Flu Activity Sporadic
METAR KEKO 270156Z AUTO 34009KT 10SM CLR 09/M07 A3017 RMK AO2 SLP212 T00941072

More Conditions Fewer Conditions

Pressure 30.16 in
Visibility 10.0 miles
Clouds Clear
Windchill 43 °F
Dew Point 20 °F
Humidity 33%
Rainfall in
Snow Depth Not available.
UV 0 out of 12
Pollen 8.80 out of 12
Air Quality Not available.
Flu Activity Sporadic
METAR KEKO 270156Z AUTO 34009KT 10SM CLR 09/M07 A3017 RMK AO2 SLP212 T00941072

More Conditions Fewer Conditions

The full scope of the disaster following a powerful 7.8-magnitude earthquake in Nepal may not come into view for days, but global charities are already sending emergency aid. Click to see how you can help.

10-Day Weather Forecast

Almanac

Astronomy

Apr. 26, 2015 Rise Set
Actual Time
Civil Twilight
Nautical Twilight
Astronomical Twilight
Moon
Length of Visible Light
Length of Day
Tomorrow will be .
, % of the Moon is Illuminated

Today's Extremes

State Highs State Lows

Community

WunderPhotos

Upload Photos

1,817,204 photos uploaded!

WunderBlogs® & News

Nearby

Air Quality

  Air Quality AQ Index Pollutant
Not available.

Snow Depth

Station Depth Elevation

Earthquake Activity

City Distance Mag. Time & Date
Minimum magnitude displayed is 2.5.

Coastal Water Temperatures

Place Temperature

Stations

Nearby Weather Stations

Station Location Temp. Windchill Dew Point Humidity Wind Precip. Elev Updated Type